createdAt,value
2018-06-24T00:00:14.264Z,78.68
2018-06-24T00:02:43.596Z,78.62
2018-06-24T00:05:12.937Z,79.27
2018-06-24T00:07:42.266Z,78.48
2018-06-24T00:10:11.597Z,78.33
2018-06-24T00:12:40.921Z,77.78
2018-06-24T00:15:10.253Z,78.02
2018-06-24T00:17:39.311Z,79.46
2018-06-24T00:20:09.220Z,78.78
2018-06-24T00:22:38.524Z,79.29
2018-06-24T00:25:07.870Z,79.08
2018-06-24T00:27:36.928Z,80.47
2018-06-24T00:30:06.323Z,80.31
2018-06-24T00:32:35.608Z,80.33
2018-06-24T00:35:04.916Z,79.74
2018-06-24T00:37:34.213Z,79.77
2018-06-24T00:40:03.520Z,80.54
2018-06-24T00:42:32.808Z,79.93
2018-06-24T00:45:02.113Z,80.35
2018-06-24T00:47:31.417Z,79.20
2018-06-24T00:50:00.773Z,79.73
2018-06-24T00:52:30.109Z,78.94
2018-06-24T00:54:59.413Z,78.92
2018-06-24T00:57:28.709Z,78.27
2018-06-24T01:00:14.012Z,78.29
2018-06-24T01:02:43.313Z,78.29
2018-06-24T01:05:13.575Z,78.17
2018-06-24T01:07:43.991Z,77.39
2018-06-24T01:10:13.295Z,79.04
2018-06-24T01:12:42.797Z,79.35
2018-06-24T01:15:11.948Z,79.10
2018-06-24T01:17:41.239Z,78.59
2018-06-24T01:20:10.671Z,78.39
2018-06-24T01:22:39.959Z,78.56
2018-06-24T01:25:09.264Z,77.92
2018-06-24T01:27:38.551Z,78.05
2018-06-24T01:30:07.865Z,77.68
2018-06-24T01:32:37.160Z,78.44
2018-06-24T01:35:06.457Z,78.24
2018-06-24T01:37:35.753Z,78.78
2018-06-24T01:40:05.064Z,78.62
2018-06-24T01:42:34.359Z,79.13
2018-06-24T01:45:03.673Z,79.19
2018-06-24T01:47:33.042Z,79.44
2018-06-24T01:50:02.060Z,79.92
2018-06-24T01:52:31.360Z,79.39
2018-06-24T01:55:00.657Z,78.06
2018-06-24T01:57:29.958Z,78.08
2018-06-24T01:59:59.257Z,77.93
2018-06-24T02:02:28.570Z,78.53
2018-06-24T02:04:57.861Z,78.15
2018-06-24T02:07:27.163Z,78.55
2018-06-24T02:09:56.466Z,77.73
2018-06-24T02:12:25.772Z,78.27
2018-06-24T02:14:55.072Z,77.96
2018-06-24T02:17:24.412Z,78.23
2018-06-24T02:19:53.732Z,78.95
2018-06-24T02:22:23.059Z,79.89
2018-06-24T02:24:52.380Z,78.12
2018-06-24T02:27:21.708Z,79.16
2018-06-24T02:29:51.045Z,79.13
2018-06-24T02:32:20.381Z,79.68
2018-06-24T02:34:49.693Z,79.27
2018-06-24T02:37:19.013Z,79.77
2018-06-24T02:39:48.324Z,79.37
2018-06-24T02:42:17.659Z,78.31
2018-06-24T02:44:46.980Z,79.58
2018-06-24T02:47:16.064Z,79.22
2018-06-24T02:49:45.372Z,78.33
2018-06-24T02:52:14.693Z,78.95
2018-06-24T02:54:44.016Z,78.36
2018-06-24T02:57:13.345Z,77.67
2018-06-24T02:59:42.656Z,80.10
2018-06-24T03:02:11.991Z,80.24
2018-06-24T03:04:41.331Z,80.41
2018-06-24T03:07:10.657Z,80.23
2018-06-24T03:09:39.985Z,79.99
2018-06-24T03:12:09.320Z,80.00
2018-06-24T03:14:38.659Z,80.59
2018-06-24T03:17:07.968Z,80.72
2018-06-24T03:19:37.282Z,80.98
2018-06-24T03:22:06.344Z,80.25
2018-06-24T03:24:35.648Z,79.66
2018-06-24T03:27:04.952Z,79.28
2018-06-24T03:29:34.332Z,79.09
2018-06-24T03:32:03.624Z,78.55
2018-06-24T03:34:32.930Z,78.82
2018-06-24T03:37:02.233Z,79.04
2018-06-24T03:39:31.541Z,79.21
2018-06-24T03:42:00.837Z,79.60
2018-06-24T03:44:30.193Z,80.42
2018-06-24T03:46:59.252Z,80.53
2018-06-24T03:49:28.556Z,81.21
2018-06-24T03:51:57.852Z,81.63
2018-06-24T03:54:27.393Z,81.86
2018-06-24T03:56:56.689Z,81.60
2018-06-24T03:59:25.979Z,81.02
2018-06-24T04:01:55.064Z,80.79
2018-06-24T04:04:24.156Z,81.15
2018-06-24T04:06:53.236Z,81.41
2018-06-24T04:09:22.574Z,80.70
2018-06-24T04:11:51.905Z,80.94
2018-06-24T04:14:21.237Z,80.48
2018-06-24T04:16:50.565Z,81.05
2018-06-24T04:19:19.671Z,81.73
2018-06-24T04:21:48.987Z,80.98
2018-06-24T04:24:18.329Z,81.84
2018-06-24T04:26:47.659Z,81.43
2018-06-24T04:29:16.984Z,81.16
2018-06-24T04:31:46.325Z,81.86
2018-06-24T04:34:15.670Z,82.19
2018-06-24T04:36:45.000Z,82.11
2018-06-24T04:39:14.336Z,82.80
2018-06-24T04:41:43.656Z,82.42
2018-06-24T04:44:12.752Z,82.99
2018-06-24T04:46:41.835Z,82.37
2018-06-24T04:49:11.168Z,83.00
2018-06-24T04:51:40.505Z,82.76
2018-06-24T04:54:09.831Z,83.12
2018-06-24T04:56:39.166Z,82.94
2018-06-24T04:59:08.488Z,82.93
2018-06-24T05:01:37.821Z,83.70
2018-06-24T05:04:07.161Z,84.00
2018-06-24T05:06:36.544Z,84.68
2018-06-24T05:09:08.729Z,84.76
2018-06-24T05:11:38.080Z,84.71
2018-06-24T05:14:07.477Z,83.93
2018-06-24T05:16:37.021Z,83.85
2018-06-24T05:19:06.333Z,84.71
2018-06-24T05:21:35.637Z,84.44
2018-06-24T05:24:04.683Z,84.10
2018-06-24T05:26:33.989Z,83.21
2018-06-24T05:29:03.295Z,83.15
2018-06-24T05:31:32.604Z,82.37
2018-06-24T05:34:01.900Z,81.69
2018-06-24T05:36:31.209Z,81.23
2018-06-24T05:39:00.505Z,80.93
2018-06-24T05:41:29.820Z,80.97
2018-06-24T05:43:59.136Z,79.68
2018-06-24T05:46:28.444Z,80.90
2018-06-24T05:48:57.760Z,80.45
2018-06-24T05:51:27.080Z,79.18
2018-06-24T05:53:56.396Z,78.36
2018-06-24T05:56:25.741Z,79.54
2018-06-24T05:58:55.093Z,78.62
2018-06-24T06:01:24.407Z,79.63
2018-06-24T06:03:53.734Z,80.17
2018-06-24T06:06:23.055Z,79.79
2018-06-24T06:08:52.356Z,80.18
2018-06-24T06:11:21.660Z,78.49
2018-06-24T06:13:51.033Z,78.87
2018-06-24T06:16:20.324Z,77.27
2018-06-24T06:18:49.427Z,76.00
2018-06-24T06:21:18.745Z,76.05
2018-06-24T06:23:48.057Z,76.21
2018-06-24T06:26:17.376Z,75.67
2018-06-24T06:28:46.679Z,74.81
2018-06-24T06:31:16.242Z,75.50
2018-06-24T06:33:45.541Z,74.22
2018-06-24T06:36:14.849Z,73.73
2018-06-24T06:38:44.165Z,73.06
2018-06-24T06:41:13.468Z,72.88
2018-06-24T06:43:42.781Z,72.03
2018-06-24T06:46:13.772Z,74.17
2018-06-24T06:48:43.007Z,72.30
2018-06-24T06:51:12.386Z,71.26
2018-06-24T06:53:41.621Z,71.79
2018-06-24T06:56:10.926Z,70.43
2018-06-24T06:58:40.236Z,70.36
2018-06-24T07:01:09.546Z,70.51
2018-06-24T07:03:38.870Z,70.21
2018-06-24T07:06:09.016Z,68.98
2018-06-24T07:08:38.320Z,68.98
2018-06-24T07:11:07.784Z,67.89
2018-06-24T07:13:37.097Z,67.16
2018-06-24T07:16:06.510Z,66.94
2018-06-24T07:18:35.876Z,66.86
2018-06-24T07:21:05.212Z,65.90
2018-06-24T07:23:34.552Z,65.63
2018-06-24T07:26:03.925Z,64.60
2018-06-24T07:28:33.272Z,65.19
2018-06-24T07:31:02.625Z,65.99
2018-06-24T07:33:32.162Z,66.00
2018-06-24T07:36:01.335Z,65.28
2018-06-24T07:38:30.686Z,64.76
2018-06-24T07:41:00.036Z,65.64
2018-06-24T07:43:29.453Z,65.30
2018-06-24T07:45:58.787Z,65.51
2018-06-24T07:48:28.130Z,63.99
2018-06-24T07:50:57.468Z,63.55
2018-06-24T07:53:26.828Z,64.08
2018-06-24T07:55:56.181Z,62.60
2018-06-24T07:58:25.499Z,58.70
2018-06-24T08:00:54.849Z,58.33
2018-06-24T08:03:24.208Z,59.92
2018-06-24T08:05:53.499Z,57.13
2018-06-24T08:08:22.595Z,56.96
2018-06-24T08:10:51.748Z,58.62
2018-06-24T08:13:21.101Z,57.78
2018-06-24T08:15:50.221Z,57.12
2018-06-24T08:18:19.577Z,57.63
2018-06-24T08:20:48.937Z,57.03
2018-06-24T08:23:18.289Z,58.17
2018-06-24T08:25:47.699Z,53.46
2018-06-24T08:28:17.036Z,53.97
2018-06-24T08:30:46.391Z,52.80
2018-06-24T08:33:15.733Z,54.27
2018-06-24T08:35:45.079Z,57.08
2018-06-24T08:38:14.420Z,54.95
2018-06-24T08:40:43.769Z,53.54
2018-06-24T08:43:13.106Z,54.02
2018-06-24T08:45:42.197Z,54.24
2018-06-24T08:48:11.517Z,53.09
2018-06-24T08:50:40.840Z,53.69
2018-06-24T08:53:10.189Z,57.94
2018-06-24T08:55:39.523Z,54.02
2018-06-24T08:58:08.952Z,53.36
2018-06-24T09:00:38.339Z,53.92
2018-06-24T09:03:07.651Z,53.91
2018-06-24T09:05:36.988Z,53.19
2018-06-24T09:08:06.363Z,54.28
2018-06-24T09:10:35.407Z,52.70
2018-06-24T09:13:04.490Z,52.04
2018-06-24T09:15:33.830Z,51.27
2018-06-24T09:18:03.164Z,52.05
2018-06-24T09:20:32.505Z,52.65
2018-06-24T09:23:01.855Z,52.56
2018-06-24T09:25:31.197Z,53.17
2018-06-24T09:28:00.279Z,52.56
2018-06-24T09:30:29.632Z,53.12
2018-06-24T09:32:58.976Z,53.70
2018-06-24T09:35:28.295Z,53.40
2018-06-24T09:37:57.391Z,54.13
2018-06-24T09:40:26.467Z,53.26
2018-06-24T09:42:55.795Z,52.69
2018-06-24T09:45:24.876Z,52.96
2018-06-24T09:47:54.209Z,52.34
2018-06-24T09:50:23.580Z,53.41
2018-06-24T09:52:52.948Z,51.66
2018-06-24T09:55:22.245Z,52.12
2018-06-24T09:57:51.580Z,51.92
2018-06-24T10:00:21.745Z,51.18
2018-06-24T10:02:52.145Z,50.75
2018-06-24T10:05:22.252Z,50.89
2018-06-24T10:07:51.340Z,51.97
2018-06-24T10:10:20.420Z,51.20
2018-06-24T10:12:49.752Z,51.64
2018-06-24T10:15:19.098Z,51.65
2018-06-24T10:17:48.404Z,51.05
2018-06-24T10:20:17.699Z,50.96
2018-06-24T10:22:47.008Z,51.59
2018-06-24T10:25:16.307Z,51.08
2018-06-24T10:27:45.608Z,51.13
2018-06-24T10:30:14.921Z,51.85
2018-06-24T10:32:44.228Z,52.85
2018-06-24T10:35:13.566Z,50.23
2018-06-24T10:37:42.876Z,50.91
2018-06-24T10:40:12.184Z,50.57
2018-06-24T10:42:41.505Z,50.97
2018-06-24T10:45:10.816Z,51.80
2018-06-24T10:47:40.128Z,50.68
2018-06-24T10:50:09.569Z,49.51
2018-06-24T10:52:38.880Z,50.82
2018-06-24T10:55:08.195Z,50.29
2018-06-24T10:57:37.532Z,50.15
2018-06-24T11:00:06.875Z,48.60
2018-06-24T11:02:36.213Z,46.86
2018-06-24T11:05:05.584Z,44.72
2018-06-24T11:07:34.917Z,46.39
2018-06-24T11:10:04.273Z,49.21
2018-06-24T11:12:33.597Z,47.79
2018-06-24T11:15:02.926Z,48.03
2018-06-24T11:17:32.314Z,46.76
2018-06-24T11:20:01.655Z,46.47
2018-06-24T11:22:30.977Z,45.76
2018-06-24T11:25:00.343Z,46.93
2018-06-24T11:27:29.431Z,0.00
2018-06-24T11:29:58.780Z,45.23
2018-06-24T11:32:28.125Z,46.38
2018-06-24T11:34:57.475Z,44.83
2018-06-24T11:37:26.884Z,45.59
2018-06-24T11:39:56.240Z,45.46
2018-06-24T11:42:25.617Z,45.32
2018-06-24T11:44:54.967Z,45.91
2018-06-24T11:47:24.317Z,47.46
2018-06-24T11:49:53.661Z,46.18
2018-06-24T11:52:22.747Z,45.92
2018-06-24T11:54:52.101Z,45.95
2018-06-24T11:57:21.436Z,46.53
2018-06-24T11:59:51.892Z,46.23
2018-06-24T12:02:21.236Z,46.55
2018-06-24T12:04:50.575Z,46.59
2018-06-24T12:07:19.917Z,45.25
2018-06-24T12:09:49.310Z,44.13
2018-06-24T12:12:18.607Z,44.46
2018-06-24T12:14:47.956Z,43.94
2018-06-24T12:17:17.288Z,41.71
2018-06-24T12:19:46.369Z,39.69
2018-06-24T12:22:15.680Z,39.33
2018-06-24T12:24:44.763Z,39.87
2018-06-24T12:27:14.096Z,41.21
2018-06-24T12:29:43.409Z,41.14
2018-06-24T12:32:12.712Z,40.93
2018-06-24T12:34:42.044Z,37.13
2018-06-24T12:37:11.370Z,37.77
2018-06-24T12:39:40.680Z,38.85
2018-06-24T12:42:09.992Z,38.62
2018-06-24T12:44:39.344Z,38.76
2018-06-24T12:47:08.657Z,38.26
2018-06-24T12:49:37.972Z,36.96
2018-06-24T12:52:07.288Z,39.93
2018-06-24T12:54:36.369Z,36.29
2018-06-24T12:57:05.449Z,37.41
2018-06-24T12:59:35.053Z,35.54
2018-06-24T13:02:04.091Z,35.40
2018-06-24T13:04:33.405Z,35.87
2018-06-24T13:07:02.771Z,38.11
2018-06-24T13:09:32.017Z,39.52
2018-06-24T13:12:01.321Z,34.14
2018-06-24T13:14:30.632Z,34.13
2018-06-24T13:17:00.049Z,35.14
2018-06-24T13:19:29.344Z,35.04
2018-06-24T13:21:58.657Z,34.43
2018-06-24T13:24:27.965Z,34.53
2018-06-24T13:26:57.283Z,35.71
2018-06-24T13:29:26.572Z,36.43
2018-06-24T13:31:55.886Z,35.75
2018-06-24T13:34:25.202Z,38.21
2018-06-24T13:36:54.513Z,35.22
2018-06-24T13:39:23.804Z,34.21
2018-06-24T13:41:53.117Z,37.04
2018-06-24T13:44:22.429Z,34.18
2018-06-24T13:46:51.747Z,34.73
2018-06-24T13:49:21.060Z,35.63
2018-06-24T13:51:50.434Z,33.25
2018-06-24T13:54:19.747Z,33.87
2018-06-24T13:56:49.077Z,35.61
2018-06-24T13:59:18.400Z,36.16
2018-06-24T14:01:47.737Z,36.64
2018-06-24T14:04:17.074Z,36.21
2018-06-24T14:06:46.390Z,36.08
2018-06-24T14:09:15.701Z,37.60
2018-06-24T14:11:45.023Z,35.71
2018-06-24T14:14:14.323Z,36.92
2018-06-24T14:16:43.640Z,38.33
2018-06-24T14:19:12.955Z,38.14
2018-06-24T14:21:42.285Z,39.88
2018-06-24T14:24:11.604Z,37.89
2018-06-24T14:26:40.952Z,38.33
2018-06-24T14:29:10.252Z,36.78
2018-06-24T14:31:39.564Z,37.95
2018-06-24T14:34:08.912Z,37.42
2018-06-24T14:36:38.282Z,38.40
2018-06-24T14:39:10.142Z,37.89
2018-06-24T14:41:39.505Z,37.60
2018-06-24T14:44:09.200Z,37.98
2018-06-24T14:46:38.503Z,38.18
2018-06-24T14:49:07.844Z,39.89
2018-06-24T14:51:36.969Z,39.93
2018-06-24T14:54:06.056Z,38.97
2018-06-24T14:56:35.410Z,39.54
2018-06-24T14:59:04.829Z,39.46
2018-06-24T15:01:34.201Z,39.22
2018-06-24T15:04:03.536Z,39.13
2018-06-24T15:06:32.902Z,40.13
2018-06-24T15:09:02.258Z,39.65
2018-06-24T15:11:31.609Z,39.59
2018-06-24T15:14:00.985Z,38.64
2018-06-24T15:16:30.348Z,38.58
2018-06-24T15:18:59.436Z,39.79
2018-06-24T15:21:28.741Z,39.66
2018-06-24T15:23:58.193Z,42.16
2018-06-24T15:26:27.515Z,41.57
2018-06-24T15:28:56.866Z,41.44
2018-06-24T15:31:26.205Z,42.10
2018-06-24T15:33:55.566Z,41.39
2018-06-24T15:36:24.885Z,41.49
2018-06-24T15:38:54.196Z,41.62
2018-06-24T15:41:23.521Z,41.64
2018-06-24T15:43:52.853Z,41.85
2018-06-24T15:46:22.168Z,42.20
2018-06-24T15:48:51.494Z,41.44
2018-06-24T15:51:20.872Z,43.04
2018-06-24T15:53:50.144Z,42.05
2018-06-24T15:56:19.466Z,42.27
2018-06-24T15:58:48.777Z,42.97
2018-06-24T16:01:18.104Z,42.62
2018-06-24T16:03:47.400Z,42.33
2018-06-24T16:06:16.709Z,42.69
2018-06-24T16:08:46.012Z,43.48
2018-06-24T16:11:15.329Z,44.61
2018-06-24T16:13:44.624Z,43.60
2018-06-24T16:16:13.933Z,44.42
2018-06-24T16:18:43.272Z,43.93
2018-06-24T16:21:12.910Z,44.12
2018-06-24T16:23:41.940Z,44.78
2018-06-24T16:26:11.331Z,44.55
2018-06-24T16:28:40.665Z,45.47
2018-06-24T16:31:10.025Z,45.22
2018-06-24T16:33:39.380Z,44.80
2018-06-24T16:36:08.935Z,45.97
2018-06-24T16:38:38.255Z,45.14
2018-06-24T16:41:07.604Z,46.50
2018-06-24T16:43:36.925Z,45.60
2018-06-24T16:46:06.345Z,45.49
2018-06-24T16:48:35.686Z,46.44
2018-06-24T16:51:05.036Z,46.31
2018-06-24T16:53:34.454Z,47.38
2018-06-24T16:56:03.793Z,47.34
2018-06-24T16:58:33.136Z,46.80
2018-06-24T17:01:02.529Z,47.04
2018-06-24T17:03:31.857Z,47.37
2018-06-24T17:06:01.287Z,47.57
2018-06-24T17:08:30.618Z,47.98
2018-06-24T17:10:59.968Z,47.90
2018-06-24T17:13:29.310Z,48.83
2018-06-24T17:15:58.632Z,48.98
2018-06-24T17:18:28.839Z,50.05
2018-06-24T17:20:58.207Z,50.21
2018-06-24T17:23:27.317Z,49.88
2018-06-24T17:25:56.644Z,50.06
2018-06-24T17:28:26.001Z,51.04
2018-06-24T17:30:55.103Z,50.54
2018-06-24T17:33:24.540Z,50.86
2018-06-24T17:35:53.866Z,51.17
2018-06-24T17:38:23.214Z,51.40
2018-06-24T17:40:52.553Z,52.21
2018-06-24T17:43:21.893Z,52.04
2018-06-24T17:45:51.237Z,52.24
2018-06-24T17:48:20.579Z,52.81
2018-06-24T17:50:49.912Z,52.71
2018-06-24T17:53:19.314Z,53.02
2018-06-24T17:55:48.620Z,52.78
2018-06-24T17:58:17.973Z,52.72
2018-06-24T18:00:47.333Z,52.51
2018-06-24T18:03:16.666Z,52.83
2018-06-24T18:05:46.103Z,53.18
2018-06-24T18:08:22.129Z,53.43
2018-06-24T18:10:51.448Z,53.10
2018-06-24T18:13:20.781Z,53.25
2018-06-24T18:15:50.112Z,54.06
2018-06-24T18:18:19.461Z,53.47
2018-06-24T18:20:48.860Z,53.30
2018-06-24T18:23:18.217Z,53.51
2018-06-24T18:25:47.544Z,52.62
2018-06-24T18:28:16.885Z,53.27
2018-06-24T18:30:46.228Z,53.00
2018-06-24T18:33:15.582Z,53.19
2018-06-24T18:35:44.968Z,54.05
2018-06-24T18:38:14.312Z,54.07
2018-06-24T18:40:43.657Z,54.41
2018-06-24T18:43:13.014Z,54.79
2018-06-24T18:45:42.342Z,54.28
2018-06-24T18:48:14.616Z,54.33
2018-06-24T18:50:43.944Z,54.24
2018-06-24T18:53:13.357Z,55.03
2018-06-24T18:55:42.691Z,54.82
2018-06-24T18:58:12.075Z,55.07
2018-06-24T19:00:41.415Z,54.73
2018-06-24T19:03:10.910Z,54.93
2018-06-24T19:05:40.179Z,54.38
2018-06-24T19:08:09.520Z,54.86
2018-06-24T19:10:38.869Z,54.94
2018-06-24T19:13:08.208Z,54.64
2018-06-24T19:15:37.781Z,55.26
2018-06-24T19:18:07.910Z,55.97
2018-06-24T19:20:37.232Z,56.11
2018-06-24T19:23:06.864Z,55.79
2018-06-24T19:25:36.202Z,55.58
2018-06-24T19:28:05.552Z,56.48
2018-06-24T19:30:34.864Z,55.90
2018-06-24T19:33:04.167Z,56.12
2018-06-24T19:35:33.470Z,57.35
2018-06-24T19:38:02.779Z,56.53
2018-06-24T19:40:32.094Z,57.17
2018-06-24T19:43:01.155Z,56.41
2018-06-24T19:45:30.473Z,56.95
2018-06-24T19:47:59.777Z,56.96
2018-06-24T19:50:29.076Z,56.94
2018-06-24T19:52:58.421Z,57.73
2018-06-24T19:55:27.735Z,57.95
2018-06-24T19:57:57.073Z,57.57
2018-06-24T20:00:26.405Z,58.03
2018-06-24T20:03:01.996Z,57.40
2018-06-24T20:05:31.290Z,58.28
2018-06-24T20:08:00.606Z,58.42
2018-06-24T20:10:29.920Z,58.76
2018-06-24T20:12:59.261Z,59.14
2018-06-24T20:15:28.581Z,58.83
2018-06-24T20:17:57.935Z,59.88
2018-06-24T20:20:27.236Z,58.76
2018-06-24T20:22:56.330Z,59.25
2018-06-24T20:25:25.641Z,59.31
2018-06-24T20:27:54.708Z,59.82
2018-06-24T20:30:24.032Z,59.98
2018-06-24T20:32:53.101Z,59.74
2018-06-24T20:35:22.404Z,59.38
2018-06-24T20:37:51.709Z,60.23
2018-06-24T20:40:21.249Z,59.26
2018-06-24T20:42:50.551Z,59.98
2018-06-24T20:45:19.991Z,59.36
2018-06-24T20:47:49.652Z,60.06
2018-06-24T20:50:19.117Z,60.12
2018-06-24T20:52:48.293Z,59.47
2018-06-24T20:55:17.600Z,59.57
2018-06-24T20:57:46.902Z,59.30
2018-06-24T21:00:16.215Z,59.82
2018-06-24T21:02:45.524Z,59.64
2018-06-24T21:05:14.833Z,59.75
2018-06-24T21:07:44.148Z,59.28
2018-06-24T21:10:13.213Z,58.42
2018-06-24T21:12:42.534Z,58.89
2018-06-24T21:15:11.601Z,58.51
2018-06-24T21:17:40.944Z,58.87
2018-06-24T21:20:10.282Z,58.28
2018-06-24T21:22:39.624Z,59.24
2018-06-24T21:25:08.968Z,59.04
2018-06-24T21:27:38.313Z,59.30
2018-06-24T21:49:59.197Z,58.61
2018-06-24T21:52:28.548Z,60.93
2018-06-24T21:54:57.898Z,61.59
2018-06-24T21:57:27.241Z,60.80
2018-06-24T21:59:56.564Z,61.24
2018-06-24T22:02:25.659Z,61.07
2018-06-24T22:04:54.744Z,61.58
2018-06-24T22:07:24.089Z,61.26
2018-06-24T22:09:53.430Z,61.10
2018-06-24T22:12:22.772Z,61.12
2018-06-24T22:14:52.112Z,60.46
2018-06-24T22:17:21.464Z,60.55
2018-06-24T22:19:50.648Z,61.13
2018-06-24T22:22:20.010Z,61.23
2018-06-24T22:24:49.335Z,60.23
2018-06-24T22:27:18.663Z,59.90
2018-06-24T22:29:47.760Z,60.16
2018-06-24T22:32:16.856Z,60.20
2018-06-24T22:34:46.011Z,59.55
2018-06-24T22:37:15.348Z,59.77
2018-06-24T22:39:44.453Z,59.85
2018-06-24T22:42:13.793Z,59.61
2018-06-24T22:44:43.129Z,60.36
2018-06-24T22:47:12.528Z,60.46
2018-06-24T22:49:41.867Z,60.00
2018-06-24T22:52:11.196Z,59.26
2018-06-24T22:54:40.538Z,60.41
2018-06-24T22:57:09.870Z,59.87
2018-06-24T23:00:10.910Z,59.76
2018-06-24T23:02:41.023Z,58.99
2018-06-24T23:05:10.974Z,59.61
2018-06-24T23:07:41.565Z,60.34
2018-06-24T23:10:11.016Z,60.32
2018-06-24T23:12:40.348Z,60.74
2018-06-24T23:15:10.699Z,60.25
2018-06-24T23:17:40.300Z,60.62
2018-06-24T23:20:10.123Z,60.61
2018-06-24T23:22:39.455Z,60.39
2018-06-24T23:25:08.789Z,60.63
2018-06-24T23:27:38.141Z,61.35
2018-06-24T23:30:09.057Z,60.91
2018-06-24T23:32:38.404Z,61.21
2018-06-24T23:35:07.765Z,61.64
2018-06-24T23:37:37.092Z,61.77
2018-06-24T23:40:06.437Z,62.03
2018-06-24T23:42:35.768Z,62.71
2018-06-24T23:45:05.113Z,62.16
2018-06-24T23:47:34.453Z,62.04
2018-06-24T23:50:03.573Z,62.00
2018-06-24T23:52:32.914Z,63.10
2018-06-24T23:55:02.257Z,62.73
2018-06-24T23:57:31.348Z,63.34
